createdAt,value
2023-03-21T00:00:54.203Z,4.53
2023-03-21T00:03:24.272Z,4.53
2023-03-21T00:05:54.088Z,4.53
2023-03-21T00:08:23.335Z,4.57
2023-03-21T00:10:59.498Z,4.60
2023-03-21T00:13:28.422Z,4.63
2023-03-21T00:16:06.915Z,4.64
2023-03-21T00:18:49.117Z,4.66
2023-03-21T00:21:43.973Z,4.69
2023-03-21T00:24:08.234Z,4.66
2023-03-21T00:26:36.510Z,4.64
2023-03-21T00:29:05.071Z,4.66
2023-03-21T00:31:33.138Z,4.69
2023-03-21T00:34:02.117Z,4.69
2023-03-21T00:36:32.649Z,4.69
2023-03-21T00:39:05.040Z,4.68
2023-03-21T00:41:42.512Z,4.68
2023-03-21T00:44:16.029Z,4.67
2023-03-21T00:46:57.101Z,4.64
2023-03-21T00:49:34.179Z,4.69
2023-03-21T00:52:27.536Z,4.73
2023-03-21T00:54:55.002Z,4.76
2023-03-21T00:57:37.618Z,4.79
2023-03-21T01:00:10.655Z,4.83
2023-03-21T01:03:02.613Z,4.86
2023-03-21T01:05:54.754Z,4.88
2023-03-21T01:08:29.331Z,4.91
2023-03-21T01:11:02.164Z,4.94
2023-03-21T01:13:33.106Z,4.97
2023-03-21T01:16:05.623Z,5.02
2023-03-21T01:18:35.401Z,5.05
2023-03-21T01:21:06.751Z,5.10
2023-03-21T01:23:35.242Z,5.12
2023-03-21T01:26:06.827Z,5.13
2023-03-21T01:28:45.134Z,5.15
2023-03-21T01:31:14.909Z,5.13
2023-03-21T01:33:43.825Z,5.12
2023-03-21T01:36:16.547Z,5.12
2023-03-21T01:38:46.113Z,5.12
2023-03-21T01:41:33.526Z,5.15
2023-03-21T01:44:06.224Z,5.17
2023-03-21T01:47:03.609Z,5.20
2023-03-21T01:49:51.316Z,5.24
2023-03-21T01:52:39.353Z,5.26
2023-03-21T01:55:13.408Z,5.29
2023-03-21T01:58:07.284Z,5.34
2023-03-21T02:01:03.633Z,5.38
2023-03-21T02:03:50.552Z,5.41
2023-03-21T02:06:47.073Z,5.41
2023-03-21T02:09:37.242Z,5.39
2023-03-21T02:12:08.936Z,5.37
2023-03-21T02:14:38.609Z,5.36
2023-03-21T02:17:17.122Z,5.34
2023-03-21T02:19:59.011Z,5.33
2023-03-21T02:22:31.084Z,5.28
2023-03-21T02:25:04.418Z,5.22
2023-03-21T02:27:43.619Z,5.14
2023-03-21T02:30:17.374Z,5.06
2023-03-21T02:32:48.906Z,5.00
2023-03-21T02:35:41.540Z,4.96
2023-03-21T02:38:19.087Z,4.93
2023-03-21T02:41:19.631Z,4.91
2023-03-21T02:43:59.471Z,4.91
2023-03-21T02:46:33.426Z,4.92
2023-03-21T02:49:20.188Z,4.92
2023-03-21T02:51:51.135Z,4.88
2023-03-21T02:54:34.859Z,4.90
2023-03-21T02:57:07.867Z,4.91
2023-03-21T02:59:44.490Z,4.90
2023-03-21T03:02:23.363Z,4.91
2023-03-21T03:04:51.631Z,4.90
2023-03-21T03:07:27.798Z,4.88
2023-03-21T03:10:03.059Z,4.85
2023-03-21T03:12:47.795Z,4.83
2023-03-21T03:15:35.285Z,4.83
2023-03-21T03:18:24.267Z,4.82
2023-03-21T03:20:58.147Z,4.82
2023-03-21T03:23:26.668Z,4.81
2023-03-21T03:26:03.071Z,4.77
2023-03-21T03:28:36.717Z,4.74
2023-03-21T03:31:10.213Z,4.73
2023-03-21T03:33:47.212Z,4.74
2023-03-21T03:36:33.601Z,4.76
2023-03-21T03:39:10.583Z,4.75
2023-03-21T03:42:12.536Z,4.73
2023-03-21T03:44:52.522Z,4.76
2023-03-21T03:47:32.867Z,4.80
2023-03-21T03:50:09.314Z,4.85
2023-03-21T03:52:50.074Z,4.87
2023-03-21T03:55:27.301Z,4.90
2023-03-21T03:57:57.289Z,4.94
2023-03-21T04:00:27.305Z,4.97
2023-03-21T04:02:55.721Z,4.99
2023-03-21T04:05:25.200Z,5.02
2023-03-21T04:07:54.760Z,5.04
2023-03-21T04:10:29.853Z,5.06
2023-03-21T04:12:58.343Z,5.07
2023-03-21T04:15:46.219Z,5.05
2023-03-21T04:18:17.223Z,5.00
2023-03-21T04:20:46.176Z,4.98
2023-03-21T04:23:14.500Z,4.94
2023-03-21T04:25:55.842Z,4.91
2023-03-21T04:28:27.807Z,4.90
2023-03-21T04:31:25.247Z,4.88
2023-03-21T04:34:00.832Z,4.88
2023-03-21T04:36:30.956Z,4.89
2023-03-21T04:39:01.719Z,4.90
2023-03-21T04:41:31.225Z,4.89
2023-03-21T04:43:59.693Z,4.87
2023-03-21T04:46:28.910Z,4.86
2023-03-21T04:48:57.174Z,4.84
2023-03-21T04:51:25.462Z,4.84
2023-03-21T04:53:57.731Z,4.82
2023-03-21T04:56:32.968Z,4.80
2023-03-21T04:59:03.057Z,4.79
2023-03-21T05:01:31.240Z,4.80
2023-03-21T05:04:03.909Z,4.85
2023-03-21T05:06:33.789Z,4.92
2023-03-21T05:09:05.656Z,5.00
2023-03-21T05:11:38.520Z,5.12
2023-03-21T05:14:09.058Z,5.23
2023-03-21T05:16:48.889Z,5.33
2023-03-21T05:19:20.866Z,5.42
2023-03-21T05:21:50.499Z,5.50
2023-03-21T05:24:22.545Z,5.58
2023-03-21T05:26:52.552Z,5.64
2023-03-21T05:29:24.229Z,5.69
2023-03-21T05:31:58.961Z,5.74
2023-03-21T05:34:28.143Z,5.83
2023-03-21T05:36:56.838Z,5.93
2023-03-21T05:39:27.384Z,6.00
2023-03-21T05:42:02.628Z,6.06
2023-03-21T05:44:32.034Z,6.10
2023-03-21T05:47:01.373Z,6.16
2023-03-21T05:49:40.267Z,6.24
2023-03-21T05:52:09.976Z,6.30
2023-03-21T05:54:42.327Z,6.34
2023-03-21T05:57:17.617Z,6.36
2023-03-21T06:00:32.040Z,6.41
2023-03-21T06:03:10.959Z,6.48
2023-03-21T06:05:55.412Z,6.51
2023-03-21T06:08:25.852Z,6.57
2023-03-21T06:10:55.753Z,6.65
2023-03-21T06:13:24.446Z,6.72
2023-03-21T06:15:52.865Z,6.78
2023-03-21T06:18:25.020Z,6.86
2023-03-21T06:21:01.000Z,6.94
2023-03-21T06:23:29.243Z,7.03
2023-03-21T06:25:57.833Z,7.12
2023-03-21T06:28:27.240Z,7.19
2023-03-21T06:30:56.165Z,7.25
2023-03-21T06:33:27.279Z,7.29
2023-03-21T06:35:56.612Z,7.31
2023-03-21T06:38:25.890Z,7.35
2023-03-21T06:40:54.966Z,7.42
2023-03-21T06:43:25.011Z,7.47
2023-03-21T06:45:53.410Z,7.52
2023-03-21T06:48:22.230Z,7.57
2023-03-21T06:50:52.416Z,7.59
2023-03-21T06:53:24.687Z,7.62
2023-03-21T06:56:12.414Z,7.69
2023-03-21T06:58:42.953Z,7.74
2023-03-21T07:01:17.745Z,7.82
2023-03-21T07:03:59.377Z,7.89
2023-03-21T07:06:28.778Z,7.97
2023-03-21T07:08:57.310Z,8.07
2023-03-21T07:11:26.470Z,8.18
2023-03-21T07:13:55.052Z,8.28
2023-03-21T07:16:25.288Z,8.37
2023-03-21T07:18:53.982Z,8.46
2023-03-21T07:21:22.770Z,8.56
2023-03-21T07:23:51.042Z,8.64
2023-03-21T07:26:19.119Z,8.73
2023-03-21T07:28:47.721Z,8.82
2023-03-21T07:31:17.540Z,8.93
2023-03-21T07:33:46.429Z,9.04
2023-03-21T07:36:15.804Z,9.15
2023-03-21T07:38:45.721Z,9.27
2023-03-21T07:43:47.430Z,9.56
2023-03-21T07:46:16.284Z,9.74
2023-03-21T07:48:44.914Z,9.93
2023-03-21T07:51:13.504Z,10.14
2023-03-21T07:53:42.153Z,10.35
2023-03-21T07:56:10.576Z,10.54
2023-03-21T07:58:38.758Z,10.72
2023-03-21T08:01:07.043Z,10.86
2023-03-21T08:03:35.408Z,10.96
2023-03-21T08:06:03.810Z,11.10
2023-03-21T08:08:35.835Z,11.21
2023-03-21T08:11:04.771Z,11.32
2023-03-21T08:13:33.770Z,11.44
2023-03-21T08:16:01.959Z,11.59
2023-03-21T08:18:30.810Z,11.73
2023-03-21T08:20:59.231Z,11.90
2023-03-21T08:23:27.418Z,12.10
2023-03-21T08:25:56.103Z,12.29
2023-03-21T08:28:24.935Z,12.44
2023-03-21T08:30:53.442Z,12.57
2023-03-21T08:33:21.773Z,12.75
2023-03-21T08:35:49.973Z,12.92
2023-03-21T08:38:18.234Z,13.09
2023-03-21T08:40:46.513Z,13.29
2023-03-21T08:43:15.005Z,13.54
2023-03-21T08:45:43.382Z,13.80
2023-03-21T08:48:11.919Z,14.07
2023-03-21T08:50:40.661Z,14.30
2023-03-21T08:53:09.153Z,14.52
2023-03-21T08:55:38.431Z,14.73
2023-03-21T08:58:07.554Z,14.93
2023-03-21T09:00:36.039Z,15.19
2023-03-21T09:03:05.314Z,15.46
2023-03-21T09:05:33.952Z,15.70
2023-03-21T09:08:03.563Z,15.97
2023-03-21T09:10:32.239Z,16.12
2023-03-21T09:13:01.034Z,16.16
2023-03-21T09:15:30.048Z,16.31
2023-03-21T09:18:15.913Z,16.25
2023-03-21T09:20:46.965Z,16.23
2023-03-21T09:23:15.558Z,16.27
2023-03-21T09:25:45.371Z,16.45
2023-03-21T09:28:14.270Z,16.76
2023-03-21T09:30:42.756Z,17.30
2023-03-21T09:33:13.417Z,17.72
2023-03-21T09:35:42.970Z,18.15
2023-03-21T09:38:11.381Z,18.59
2023-03-21T09:40:45.804Z,18.77
2023-03-21T09:43:14.086Z,18.98
2023-03-21T09:46:05.524Z,19.34
2023-03-21T09:48:50.534Z,19.96
2023-03-21T09:51:27.342Z,20.05
2023-03-21T09:53:57.861Z,19.92
2023-03-21T09:56:26.349Z,20.06
2023-03-21T09:58:58.939Z,20.53
2023-03-21T10:01:30.106Z,21.10
2023-03-21T10:04:01.131Z,21.69
2023-03-21T10:06:30.726Z,22.25
2023-03-21T10:09:06.900Z,22.59
2023-03-21T10:11:44.281Z,22.87
2023-03-21T10:14:16.762Z,23.19
2023-03-21T10:16:48.984Z,23.75
2023-03-21T10:19:18.562Z,24.43
2023-03-21T10:22:00.174Z,24.84
2023-03-21T10:24:31.869Z,25.12
2023-03-21T10:27:01.513Z,25.11
2023-03-21T10:29:33.134Z,25.22
2023-03-21T10:32:01.736Z,25.54
2023-03-21T10:34:37.307Z,25.92
2023-03-21T10:37:06.551Z,26.35
2023-03-21T10:39:39.202Z,26.62
2023-03-21T10:42:13.731Z,26.82
2023-03-21T10:44:47.246Z,27.44
2023-03-21T10:47:21.017Z,27.83
2023-03-21T10:52:38.903Z,27.04
2023-03-21T10:55:16.061Z,26.57
2023-03-21T10:57:46.250Z,26.27
2023-03-21T11:00:23.227Z,25.55
2023-03-21T11:02:53.426Z,25.60
2023-03-21T11:05:24.649Z,25.80
2023-03-21T11:08:12.972Z,25.56
2023-03-21T11:10:52.929Z,25.54
2023-03-21T11:13:25.910Z,25.70
2023-03-21T11:15:56.139Z,25.86
2023-03-21T11:18:25.648Z,26.15
2023-03-21T11:20:58.755Z,26.26
2023-03-21T11:23:29.075Z,26.18
2023-03-21T11:25:59.304Z,26.29
2023-03-21T11:28:34.235Z,26.35
2023-03-21T11:31:03.792Z,26.40
2023-03-21T11:33:34.324Z,26.07
2023-03-21T11:36:08.084Z,25.68
2023-03-21T11:38:37.895Z,25.47
2023-03-21T11:41:06.695Z,25.44
2023-03-21T11:43:38.981Z,25.67
2023-03-21T11:46:09.727Z,25.82
2023-03-21T11:48:42.595Z,25.75
2023-03-21T11:51:17.008Z,25.66
2023-03-21T11:53:57.281Z,25.65
2023-03-21T11:56:49.490Z,25.71
2023-03-21T11:59:36.609Z,25.59
2023-03-21T12:02:28.995Z,25.16
2023-03-21T12:05:04.274Z,24.97
2023-03-21T12:07:40.642Z,24.97
2023-03-21T12:10:08.721Z,25.14
2023-03-21T12:12:57.878Z,25.46
2023-03-21T12:15:31.384Z,25.79
2023-03-21T12:17:59.452Z,26.01
2023-03-21T12:20:42.785Z,26.13
2023-03-21T12:23:23.600Z,26.41
2023-03-21T12:26:01.250Z,26.74
2023-03-21T12:28:40.103Z,27.07
2023-03-21T12:31:17.507Z,27.17
2023-03-21T12:34:08.382Z,27.49
2023-03-21T12:36:36.859Z,27.97
2023-03-21T12:39:14.839Z,28.32
2023-03-21T12:41:42.916Z,28.22
2023-03-21T12:44:20.520Z,28.33
2023-03-21T12:46:56.325Z,28.90
2023-03-21T12:49:27.824Z,29.24
2023-03-21T12:52:00.000Z,29.68
2023-03-21T12:54:31.247Z,29.91
2023-03-21T12:57:21.622Z,30.35
2023-03-21T13:00:13.761Z,30.88
2023-03-21T13:03:03.109Z,31.10
2023-03-21T13:05:33.853Z,31.46
2023-03-21T13:08:04.893Z,31.61
2023-03-21T13:10:34.101Z,32.10
2023-03-21T13:13:07.843Z,32.33
2023-03-21T13:15:52.631Z,32.54
2023-03-21T13:18:26.988Z,32.81
2023-03-21T13:20:57.010Z,33.09
2023-03-21T13:23:26.110Z,33.22
2023-03-21T13:25:55.885Z,33.33
2023-03-21T13:28:29.036Z,33.33
2023-03-21T13:31:51.003Z,32.91
2023-03-21T13:34:23.906Z,32.54
2023-03-21T13:36:52.916Z,32.50
2023-03-21T13:39:25.374Z,32.69
2023-03-21T13:41:54.894Z,32.99
2023-03-21T13:44:24.025Z,33.45
2023-03-21T13:46:59.521Z,34.08
2023-03-21T13:49:37.753Z,34.56
2023-03-21T13:52:12.287Z,34.81
2023-03-21T13:54:48.342Z,35.13
2023-03-21T13:57:22.470Z,35.70
2023-03-21T14:00:10.672Z,36.11
2023-03-21T14:02:51.004Z,35.62
2023-03-21T14:05:22.164Z,35.18
2023-03-21T14:07:54.753Z,34.97
2023-03-21T14:10:35.457Z,35.17
2023-03-21T14:13:07.914Z,35.47
2023-03-21T14:15:55.394Z,35.57
2023-03-21T14:18:52.290Z,35.55
2023-03-21T14:21:24.220Z,35.01
2023-03-21T14:24:00.027Z,34.69
2023-03-21T14:26:30.834Z,34.80
2023-03-21T14:28:59.728Z,34.83
2023-03-21T14:31:28.026Z,34.83
2023-03-21T14:33:58.234Z,34.80
2023-03-21T14:36:28.526Z,34.90
2023-03-21T14:39:04.829Z,34.92
2023-03-21T14:41:34.749Z,34.99
2023-03-21T14:44:04.459Z,34.69
2023-03-21T14:46:33.864Z,34.21
2023-03-21T14:49:34.485Z,34.01
2023-03-21T14:52:06.706Z,33.81
2023-03-21T14:54:36.637Z,33.78
2023-03-21T14:57:08.339Z,33.34
2023-03-21T14:59:38.358Z,33.26
2023-03-21T15:02:15.697Z,32.95
2023-03-21T15:04:45.797Z,32.31
2023-03-21T15:07:24.487Z,31.32
2023-03-21T15:09:57.093Z,30.49
2023-03-21T15:12:26.060Z,29.64
2023-03-21T15:14:54.943Z,28.74
2023-03-21T15:17:24.678Z,28.06
2023-03-21T15:19:53.166Z,27.53
2023-03-21T15:22:27.891Z,26.76
2023-03-21T15:24:59.259Z,26.05
2023-03-21T15:27:29.878Z,25.52
2023-03-21T15:29:58.062Z,25.17
2023-03-21T15:32:27.674Z,24.85
2023-03-21T15:35:04.040Z,24.38
2023-03-21T15:37:34.674Z,24.06
2023-03-21T15:40:15.847Z,23.78
2023-03-21T15:42:44.552Z,23.33
2023-03-21T15:45:21.937Z,22.98
2023-03-21T15:47:51.843Z,22.68
2023-03-21T15:50:26.696Z,22.42
2023-03-21T15:52:56.108Z,22.14
2023-03-21T15:55:28.769Z,21.88
2023-03-21T15:58:05.040Z,21.66
2023-03-21T16:00:40.372Z,21.43
2023-03-21T16:03:34.950Z,21.17
2023-03-21T16:06:03.652Z,20.86
2023-03-21T16:08:36.965Z,20.64
2023-03-21T16:11:28.766Z,20.38
2023-03-21T16:13:57.358Z,20.07
2023-03-21T16:16:26.745Z,19.82
2023-03-21T16:18:57.005Z,19.55
2023-03-21T16:21:27.002Z,19.27
2023-03-21T16:23:56.281Z,19.02
2023-03-21T16:26:26.444Z,18.78
2023-03-21T16:28:54.520Z,18.55
2023-03-21T16:31:24.124Z,18.38
2023-03-21T16:33:53.230Z,18.19
2023-03-21T16:36:23.558Z,17.96
2023-03-21T16:38:55.420Z,17.77
2023-03-21T16:41:24.292Z,17.56
2023-03-21T16:43:53.651Z,17.41
2023-03-21T16:46:23.957Z,17.25
2023-03-21T16:48:53.560Z,17.10
2023-03-21T16:53:51.661Z,16.87
2023-03-21T16:56:25.686Z,16.77
2023-03-21T16:58:54.579Z,16.65
2023-03-21T17:01:27.605Z,16.51
2023-03-21T17:03:57.992Z,16.32
2023-03-21T17:06:30.362Z,16.20
2023-03-21T17:08:59.260Z,16.09
2023-03-21T17:11:33.067Z,15.99
2023-03-21T17:14:01.250Z,15.86
2023-03-21T17:16:29.860Z,15.70
2023-03-21T17:18:58.222Z,15.55
2023-03-21T17:21:27.635Z,15.42
2023-03-21T17:23:56.323Z,15.35
2023-03-21T17:26:26.002Z,15.21
2023-03-21T17:28:55.447Z,15.03
2023-03-21T17:31:25.308Z,14.87
2023-03-21T17:33:53.746Z,14.72
2023-03-21T17:36:27.042Z,14.61
2023-03-21T17:38:55.641Z,14.54
2023-03-21T17:41:24.635Z,14.49
2023-03-21T17:43:53.111Z,14.41
2023-03-21T17:46:25.603Z,14.32
2023-03-21T17:48:54.895Z,14.24
2023-03-21T17:51:26.269Z,14.14
2023-03-21T17:53:56.470Z,14.05
2023-03-21T17:56:31.922Z,13.97
2023-03-21T17:59:02.156Z,13.90
2023-03-21T18:01:36.598Z,13.83
2023-03-21T18:04:05.775Z,13.78
2023-03-21T18:06:34.871Z,13.72
2023-03-21T18:09:07.203Z,13.61
2023-03-21T18:11:35.526Z,13.48
2023-03-21T18:14:15.808Z,13.37
2023-03-21T18:16:45.658Z,13.30
2023-03-21T18:19:14.902Z,13.22
2023-03-21T18:21:45.848Z,13.17
2023-03-21T18:24:15.048Z,13.10
2023-03-21T18:26:44.792Z,13.09
2023-03-21T18:32:08.518Z,13.13
2023-03-21T18:34:39.003Z,13.13
2023-03-21T18:37:08.489Z,13.17
2023-03-21T18:39:37.248Z,13.19
2023-03-21T18:42:05.928Z,13.18
2023-03-21T18:44:39.332Z,13.15
2023-03-21T18:47:08.714Z,13.11
2023-03-21T18:52:27.456Z,13.08
2023-03-21T18:54:56.870Z,13.04
2023-03-21T18:57:36.509Z,13.00
2023-03-21T19:00:13.391Z,12.93
2023-03-21T19:02:53.660Z,12.88
2023-03-21T19:05:27.695Z,12.87
2023-03-21T19:07:56.257Z,12.85
2023-03-21T19:10:24.525Z,12.83
2023-03-21T19:12:55.910Z,12.81
2023-03-21T19:15:25.112Z,12.78
2023-03-21T19:20:47.080Z,12.72
2023-03-21T19:23:17.303Z,12.68
2023-03-21T19:25:46.037Z,12.64
2023-03-21T19:28:14.416Z,12.59
2023-03-21T19:30:49.688Z,12.55
2023-03-21T19:33:20.199Z,12.49
2023-03-21T19:35:49.749Z,12.47
2023-03-21T19:38:17.876Z,12.42
2023-03-21T19:40:46.465Z,12.33
2023-03-21T19:43:32.331Z,12.26
2023-03-21T19:46:01.862Z,12.10
2023-03-21T19:48:30.494Z,11.98
2023-03-21T19:51:36.398Z,11.87
2023-03-21T19:53:50.670Z,11.78
2023-03-21T19:56:23.024Z,11.72
2023-03-21T19:58:52.443Z,11.67
2023-03-21T20:01:20.741Z,11.60
2023-03-21T20:03:49.102Z,11.52
2023-03-21T20:06:17.588Z,11.45
2023-03-21T20:11:34.206Z,11.35
2023-03-21T20:14:03.525Z,11.32
2023-03-21T20:16:35.878Z,11.32
2023-03-21T20:19:06.221Z,11.33
2023-03-21T20:21:44.826Z,11.31
2023-03-21T20:24:16.630Z,11.29
2023-03-21T20:26:45.960Z,11.29
2023-03-21T20:32:02.429Z,11.25
2023-03-21T20:34:31.077Z,11.20
2023-03-21T20:36:59.373Z,11.14
2023-03-21T20:39:29.804Z,11.10
2023-03-21T20:41:59.510Z,11.09
2023-03-21T20:47:17.030Z,10.99
2023-03-21T20:49:45.566Z,10.94
2023-03-21T20:52:54.822Z,10.86
2023-03-21T20:55:03.315Z,10.79
2023-03-21T20:57:34.183Z,10.77
2023-03-21T21:00:08.799Z,10.77
2023-03-21T21:02:37.577Z,10.77
2023-03-21T21:05:37.036Z,10.77
2023-03-21T21:07:56.663Z,10.73
2023-03-21T21:10:25.925Z,10.68
2023-03-21T21:12:54.251Z,10.63
2023-03-21T21:15:22.629Z,10.60
2023-03-21T21:18:05.534Z,10.59
2023-03-21T21:20:35.573Z,10.56
2023-03-21T21:23:03.749Z,10.55
2023-03-21T21:25:33.276Z,10.54
2023-03-21T21:28:02.173Z,10.53
2023-03-21T21:30:32.793Z,10.52
2023-03-21T21:33:01.237Z,10.51
2023-03-21T21:35:29.589Z,10.49
2023-03-21T21:37:57.820Z,10.44
2023-03-21T21:40:26.223Z,10.39
2023-03-21T21:42:54.620Z,10.37
2023-03-21T21:45:23.704Z,10.38
2023-03-21T21:47:52.782Z,10.38
2023-03-21T21:50:22.588Z,10.36
2023-03-21T21:52:53.018Z,10.33
2023-03-21T21:55:21.725Z,10.27
2023-03-21T21:57:53.115Z,10.19
2023-03-21T22:00:21.607Z,10.13
2023-03-21T22:02:50.078Z,10.13
2023-03-21T22:05:19.167Z,10.11
2023-03-21T22:07:52.674Z,10.09
2023-03-21T22:10:22.078Z,10.03
2023-03-21T22:12:53.781Z,9.97
2023-03-21T22:15:22.829Z,9.93
2023-03-21T22:17:51.630Z,9.87
2023-03-21T22:20:20.838Z,9.79
2023-03-21T22:22:49.318Z,9.75
2023-03-21T22:25:18.107Z,9.70
2023-03-21T22:27:46.599Z,9.65
2023-03-21T22:30:17.556Z,9.59
2023-03-21T22:32:51.521Z,9.55
2023-03-21T22:35:24.678Z,9.52
2023-03-21T22:37:52.936Z,9.50
2023-03-21T22:40:21.112Z,9.45
2023-03-21T22:42:49.186Z,9.43
2023-03-21T22:45:17.778Z,9.42
2023-03-21T22:47:46.102Z,9.40
2023-03-21T22:50:14.135Z,9.38
2023-03-21T22:52:42.425Z,9.33
2023-03-21T22:55:12.862Z,9.32
2023-03-21T22:57:41.888Z,9.31
2023-03-21T23:00:13.691Z,9.32
2023-03-21T23:02:42.109Z,9.34
2023-03-21T23:05:11.099Z,9.32
2023-03-21T23:07:39.287Z,9.25
2023-03-21T23:10:07.912Z,9.22
2023-03-21T23:12:37.786Z,9.15
2023-03-21T23:15:07.089Z,9.10
2023-03-21T23:17:35.670Z,9.04
2023-03-21T23:20:08.457Z,8.98
2023-03-21T23:22:37.149Z,8.91
2023-03-21T23:25:05.772Z,8.84
2023-03-21T23:27:37.924Z,8.76
2023-03-21T23:30:07.264Z,8.69
2023-03-21T23:32:35.608Z,8.62
2023-03-21T23:35:04.108Z,8.56
2023-03-21T23:37:32.375Z,8.51
2023-03-21T23:40:00.651Z,8.45
2023-03-21T23:42:29.371Z,8.39
2023-03-21T23:44:58.037Z,8.36
2023-03-21T23:47:26.415Z,8.35
2023-03-21T23:49:55.118Z,8.31
2023-03-21T23:52:23.390Z,8.26
2023-03-21T23:54:52.094Z,8.21
2023-03-21T23:57:20.570Z,8.17
2023-03-21T23:59:48.959Z,8.12
